sensor_id;sensor_type;location;lat;lon;timestamp;pressure;altitude;pressure_sealevel;temperature;humidity
50859;BME280;36826;47.514;19.056;2022-10-18T00:00:40;101552.31;;;28.33;48.49
50859;BME280;36826;47.514;19.056;2022-10-18T00:03:05;101554.00;;;28.35;48.49
50859;BME280;36826;47.514;19.056;2022-10-18T00:05:31;101555.91;;;28.34;48.68
50859;BME280;36826;47.514;19.056;2022-10-18T00:07:57;101565.47;;;28.31;48.77
50859;BME280;36826;47.514;19.056;2022-10-18T00:10:22;101564.19;;;28.34;48.22
50859;BME280;36826;47.514;19.056;2022-10-18T00:12:51;101552.09;;;28.35;48.66
50859;BME280;36826;47.514;19.056;2022-10-18T00:15:17;101551.50;;;28.33;48.36
50859;BME280;36826;47.514;19.056;2022-10-18T00:17:42;101546.81;;;28.33;48.65
50859;BME280;36826;47.514;19.056;2022-10-18T00:20:08;101544.91;;;28.34;48.58
50859;BME280;36826;47.514;19.056;2022-10-18T00:22:37;101540.47;;;28.33;48.43
50859;BME280;36826;47.514;19.056;2022-10-18T00:25:04;101548.75;;;28.33;48.27
50859;BME280;36826;47.514;19.056;2022-10-18T00:27:30;101542.59;;;28.31;48.54
50859;BME280;36826;47.514;19.056;2022-10-18T00:29:55;101540.00;;;28.36;48.41
50859;BME280;36826;47.514;19.056;2022-10-18T00:32:21;101539.19;;;28.36;48.27
50859;BME280;36826;47.514;19.056;2022-10-18T00:34:46;101543.81;;;28.35;48.24
50859;BME280;36826;47.514;19.056;2022-10-18T00:37:12;101532.81;;;28.35;48.35
50859;BME280;36826;47.514;19.056;2022-10-18T00:39:37;101538.31;;;28.35;48.53
50859;BME280;36826;47.514;19.056;2022-10-18T00:42:03;101541.69;;;28.37;48.51
50859;BME280;36826;47.514;19.056;2022-10-18T00:47:07;101539.19;;;28.36;48.40
50859;BME280;36826;47.514;19.056;2022-10-18T00:49:37;101528.34;;;28.34;48.39
50859;BME280;36826;47.514;19.056;2022-10-18T00:52:21;101528.16;;;28.36;48.05
50859;BME280;36826;47.514;19.056;2022-10-18T00:54:48;101533.66;;;28.36;48.33
50859;BME280;36826;47.514;19.056;2022-10-18T00:57:15;101534.50;;;28.36;48.18
50859;BME280;36826;47.514;19.056;2022-10-18T00:59:41;101527.28;;;28.35;47.94
50859;BME280;36826;47.514;19.056;2022-10-18T01:02:07;101525.59;;;28.34;48.21
50859;BME280;36826;47.514;19.056;2022-10-18T01:04:34;101528.56;;;28.39;48.05
50859;BME280;36826;47.514;19.056;2022-10-18T01:15:28;101513.53;;;28.35;48.03
50859;BME280;36826;47.514;19.056;2022-10-18T01:18:04;101514.59;;;28.34;48.18
50859;BME280;36826;47.514;19.056;2022-10-18T01:23:16;101505.50;;;28.33;48.13
50859;BME280;36826;47.514;19.056;2022-10-18T01:25:53;101502.50;;;28.35;48.26
50859;BME280;36826;47.514;19.056;2022-10-18T01:28:37;101496.78;;;28.37;48.40
50859;BME280;36826;47.514;19.056;2022-10-18T01:31:21;101500.59;;;28.36;48.25
50859;BME280;36826;47.514;19.056;2022-10-18T01:33:59;101496.56;;;28.38;47.97
50859;BME280;36826;47.514;19.056;2022-10-18T01:36:30;101496.78;;;28.37;48.23
50859;BME280;36826;47.514;19.056;2022-10-18T01:39:00;101492.53;;;28.34;48.36
50859;BME280;36826;47.514;19.056;2022-10-18T01:41:27;101490.66;;;28.35;48.05
50859;BME280;36826;47.514;19.056;2022-10-18T01:43:57;101485.59;;;28.31;47.96
50859;BME280;36826;47.514;19.056;2022-10-18T01:46:24;101483.06;;;28.30;47.94
50859;BME280;36826;47.514;19.056;2022-10-18T01:48:52;101484.50;;;28.32;48.03
50859;BME280;36826;47.514;19.056;2022-10-18T01:51:29;101482.81;;;28.31;47.97
50859;BME280;36826;47.514;19.056;2022-10-18T01:53:55;101485.81;;;28.30;48.08
50859;BME280;36826;47.514;19.056;2022-10-18T01:56:34;101480.31;;;28.30;48.07
50859;BME280;36826;47.514;19.056;2022-10-18T01:59:08;101479.25;;;28.31;48.33
50859;BME280;36826;47.514;19.056;2022-10-18T02:04:19;101477.75;;;28.28;48.15
50859;BME280;36826;47.514;19.056;2022-10-18T02:06:48;101474.16;;;28.28;48.04
50859;BME280;36826;47.514;19.056;2022-10-18T02:09:19;101469.28;;;28.30;48.22
50859;BME280;36826;47.514;19.056;2022-10-18T02:11:50;101469.28;;;28.30;48.16
50859;BME280;36826;47.514;19.056;2022-10-18T02:14:18;101467.38;;;28.30;48.29
50859;BME280;36826;47.514;19.056;2022-10-18T02:16:51;101467.16;;;28.32;47.99
50859;BME280;36826;47.514;19.056;2022-10-18T02:19:26;101471.13;;;28.36;47.93
50859;BME280;36826;47.514;19.056;2022-10-18T02:21:54;101466.53;;;28.30;47.93
50859;BME280;36826;47.514;19.056;2022-10-18T02:24:23;101470.13;;;28.30;47.90
50859;BME280;36826;47.514;19.056;2022-10-18T02:26:50;101468.22;;;28.31;48.21
50859;BME280;36826;47.514;19.056;2022-10-18T02:29:16;101472.66;;;28.32;48.06
50859;BME280;36826;47.514;19.056;2022-10-18T02:31:49;101472.66;;;28.32;47.94
50859;BME280;36826;47.514;19.056;2022-10-18T02:39:33;101478.19;;;28.32;47.82
50859;BME280;36826;47.514;19.056;2022-10-18T02:42:00;101470.50;;;28.34;48.07
50859;BME280;36826;47.514;19.056;2022-10-18T02:44:31;101475.19;;;28.33;48.05
50859;BME280;36826;47.514;19.056;2022-10-18T02:46:56;101479.88;;;28.33;47.73
50859;BME280;36826;47.514;19.056;2022-10-18T02:49:21;101472.66;;;28.32;48.00
50859;BME280;36826;47.514;19.056;2022-10-18T02:51:47;101470.34;;;28.29;47.98
50859;BME280;36826;47.514;19.056;2022-10-18T02:54:12;101475.41;;;28.32;47.92
50859;BME280;36826;47.514;19.056;2022-10-18T02:56:38;101465.47;;;28.31;47.83
50859;BME280;36826;47.514;19.056;2022-10-18T02:59:03;101474.78;;;28.30;47.84
50859;BME280;36826;47.514;19.056;2022-10-18T03:01:31;101469.91;;;28.32;47.68
50859;BME280;36826;47.514;19.056;2022-10-18T03:03:57;101471.59;;;28.33;48.12
50859;BME280;36826;47.514;19.056;2022-10-18T03:06:22;101477.13;;;28.33;47.81
50859;BME280;36826;47.514;19.056;2022-10-18T03:08:48;101478.19;;;28.32;47.66
50859;BME280;36826;47.514;19.056;2022-10-18T03:11:13;101478.19;;;28.32;47.83
50859;BME280;36826;47.514;19.056;2022-10-18T03:13:38;101482.81;;;28.31;47.92
50859;BME280;36826;47.514;19.056;2022-10-18T03:16:04;101487.50;;;28.31;47.85
50859;BME280;36826;47.514;19.056;2022-10-18T03:18:29;101485.81;;;28.30;48.08
50859;BME280;36826;47.514;19.056;2022-10-18T03:20:54;101488.56;;;28.30;48.13
50859;BME280;36826;47.514;19.056;2022-10-18T03:23:20;101494.72;;;28.32;47.87
50859;BME280;36826;47.514;19.056;2022-10-18T03:25:45;101493.84;;;28.31;47.38
50859;BME280;36826;47.514;19.056;2022-10-18T03:28:11;101487.50;;;28.31;47.82
50859;BME280;36826;47.514;19.056;2022-10-18T03:30:36;101491.31;;;28.30;47.94
50859;BME280;36826;47.514;19.056;2022-10-18T03:33:04;101493.00;;;28.31;47.67
50859;BME280;36826;47.514;19.056;2022-10-18T03:35:29;101485.38;;;28.33;47.80
50859;BME280;36826;47.514;19.056;2022-10-18T03:37:55;101490.25;;;28.31;48.02
50859;BME280;36826;47.514;19.056;2022-10-18T03:40:20;101485.59;;;28.31;47.83
50859;BME280;36826;47.514;19.056;2022-10-18T03:42:46;101487.50;;;28.31;47.94
50859;BME280;36826;47.514;19.056;2022-10-18T03:45:11;101479.88;;;28.33;47.94
50859;BME280;36826;47.514;19.056;2022-10-18T03:47:36;101485.38;;;28.33;47.78
50859;BME280;36826;47.514;19.056;2022-10-18T03:50:03;101484.75;;;28.31;47.75
50859;BME280;36826;47.514;19.056;2022-10-18T03:52:28;101490.03;;;28.32;47.95
50859;BME280;36826;47.514;19.056;2022-10-18T03:54:53;101499.16;;;28.33;47.67
50859;BME280;36826;47.514;19.056;2022-10-18T03:57:19;101488.97;;;28.33;47.65
50859;BME280;36826;47.514;19.056;2022-10-18T03:59:44;101486.44;;;28.32;47.65
50859;BME280;36826;47.514;19.056;2022-10-18T04:02:10;101482.63;;;28.33;47.72
50859;BME280;36826;47.514;19.056;2022-10-18T04:04:35;101483.06;;;28.30;47.75
50859;BME280;36826;47.514;19.056;2022-10-18T04:07:00;101482.44;;;28.28;48.05
50859;BME280;36826;47.514;19.056;2022-10-18T04:09:26;101478.44;;;28.24;48.07
50859;BME280;36826;47.514;19.056;2022-10-18T04:11:51;101479.44;;;28.29;47.66
50859;BME280;36826;47.514;19.056;2022-10-18T04:14:17;101484.75;;;28.31;48.04
50859;BME280;36826;47.514;19.056;2022-10-18T04:16:45;101479.00;;;28.32;48.00
50859;BME280;36826;47.514;19.056;2022-10-18T04:19:11;101473.06;;;28.36;47.52
50859;BME280;36826;47.514;19.056;2022-10-18T04:21:36;101475.41;;;28.32;47.90
50859;BME280;36826;47.514;19.056;2022-10-18T04:24:01;101479.41;;;28.36;47.93
50859;BME280;36826;47.514;19.056;2022-10-18T04:26:27;101471.59;;;28.33;47.94
50859;BME280;36826;47.514;19.056;2022-10-18T04:28:52;101469.69;;;28.33;48.11
50859;BME280;36826;47.514;19.056;2022-10-18T04:31:18;101469.25;;;28.37;47.68
50859;BME280;36826;47.514;19.056;2022-10-18T04:33:43;101467.06;;;28.45;47.73
50859;BME280;36826;47.514;19.056;2022-10-18T04:36:08;101475.47;;;28.51;47.58
50859;BME280;36826;47.514;19.056;2022-10-18T04:38:34;101471.88;;;28.50;47.80
50859;BME280;36826;47.514;19.056;2022-10-18T04:40:59;101465.19;;;28.39;48.06
50859;BME280;36826;47.514;19.056;2022-10-18T04:43:25;101466.25;;;28.38;48.01
50859;BME280;36826;47.514;19.056;2022-10-18T04:45:50;101466.88;;;28.40;47.98
50859;BME280;36826;47.514;19.056;2022-10-18T04:48:16;101462.19;;;28.41;48.06
50859;BME280;36826;47.514;19.056;2022-10-18T04:50:42;101452.47;;;28.38;48.17
50859;BME280;36826;47.514;19.056;2022-10-18T04:53:07;101448.47;;;28.34;48.55
50859;BME280;36826;47.514;19.056;2022-10-18T04:55:33;101453.16;;;28.33;48.39
50859;BME280;36826;47.514;19.056;2022-10-18T04:57:58;101456.91;;;28.39;48.16
50859;BME280;36826;47.514;19.056;2022-10-18T05:00:24;101453.09;;;28.40;48.11
50859;BME280;36826;47.514;19.056;2022-10-18T05:02:49;101445.44;;;28.42;48.26
50859;BME280;36826;47.514;19.056;2022-10-18T05:05:19;101449.66;;;28.45;48.29
50859;BME280;36826;47.514;19.056;2022-10-18T05:07:45;101447.13;;;28.43;48.46
50859;BME280;36826;47.514;19.056;2022-10-18T05:10:10;101449.91;;;28.43;48.17
50859;BME280;36826;47.514;19.056;2022-10-18T05:12:35;101454.09;;;28.46;48.59
50859;BME280;36826;47.514;19.056;2022-10-18T05:15:01;101456.84;;;28.46;48.33
50859;BME280;36826;47.514;19.056;2022-10-18T05:17:26;101455.22;;;28.38;47.23
50859;BME280;36826;47.514;19.056;2022-10-18T05:19:52;101456.56;;;28.29;47.10
50859;BME280;36826;47.514;19.056;2022-10-18T05:22:17;101457.03;;;28.26;46.67
50859;BME280;36826;47.514;19.056;2022-10-18T05:24:42;101446.44;;;28.23;46.24
50859;BME280;36826;47.514;19.056;2022-10-18T05:27:08;101449.00;;;28.24;46.15
50859;BME280;36826;47.514;19.056;2022-10-18T05:29:35;101457.19;;;28.31;45.81
50859;BME280;36826;47.514;19.056;2022-10-18T05:32:00;101461.66;;;28.32;45.77
50859;BME280;36826;47.514;19.056;2022-10-18T05:34:26;101461.84;;;28.30;45.97
50859;BME280;36826;47.514;19.056;2022-10-18T05:36:51;101455.06;;;28.33;46.37
50859;BME280;36826;47.514;19.056;2022-10-18T05:39:17;101462.88;;;28.36;46.22
50859;BME280;36826;47.514;19.056;2022-10-18T05:41:42;101464.13;;;28.40;46.20
50859;BME280;36826;47.514;19.056;2022-10-18T05:44:08;101463.69;;;28.43;46.00
50859;BME280;36826;47.514;19.056;2022-10-18T05:46:33;101463.00;;;28.48;46.27
50859;BME280;36826;47.514;19.056;2022-10-18T05:48:59;101459.56;;;28.53;46.38
50859;BME280;36826;47.514;19.056;2022-10-18T05:51:24;101459.56;;;28.53;46.27
50859;BME280;36826;47.514;19.056;2022-10-18T05:53:49;101460.81;;;28.57;46.41
50859;BME280;36826;47.514;19.056;2022-10-18T05:56:15;101460.34;;;28.60;46.33
50859;BME280;36826;47.514;19.056;2022-10-18T05:58:41;101462.66;;;28.63;45.98
50859;BME280;36826;47.514;19.056;2022-10-18T06:01:08;101463.88;;;28.67;45.91
50859;BME280;36826;47.514;19.056;2022-10-18T06:03:34;101465.97;;;28.72;45.88
50859;BME280;36826;47.514;19.056;2022-10-18T06:06:05;101465.50;;;28.82;45.84
50859;BME280;36826;47.514;19.056;2022-10-18T06:08:30;101471.16;;;28.87;45.54
50859;BME280;36826;47.514;19.056;2022-10-18T06:10:56;101461.34;;;28.91;45.47
50859;BME280;36826;47.514;19.056;2022-10-18T06:13:22;101468.72;;;28.97;45.53
50859;BME280;36826;47.514;19.056;2022-10-18T06:15:47;101462.28;;;29.03;45.45
50859;BME280;36826;47.514;19.056;2022-10-18T06:18:12;101465.22;;;29.08;45.44
50859;BME280;36826;47.514;19.056;2022-10-18T06:20:38;101464.28;;;29.15;45.37
50859;BME280;36826;47.514;19.056;2022-10-18T06:23:03;101465.06;;;29.22;45.19
50859;BME280;36826;47.514;19.056;2022-10-18T06:25:29;101484.88;;;29.31;44.87
50859;BME280;36826;47.514;19.056;2022-10-18T06:27:54;101478.25;;;29.38;44.69
50859;BME280;36826;47.514;19.056;2022-10-18T06:30:19;101486.88;;;29.49;44.65
50859;BME280;36826;47.514;19.056;2022-10-18T06:32:45;101483.63;;;29.52;44.59
50859;BME280;36826;47.514;19.056;2022-10-18T06:35:10;101481.63;;;29.59;44.48
50859;BME280;36826;47.514;19.056;2022-10-18T06:37:36;101483.22;;;29.67;44.74
50859;BME280;36826;47.514;19.056;2022-10-18T06:40:03;101485.06;;;29.73;44.32
50859;BME280;36826;47.514;19.056;2022-10-18T06:42:28;101484.34;;;29.78;44.31
50859;BME280;36826;47.514;19.056;2022-10-18T06:44:53;101481.28;;;29.86;44.38
50859;BME280;36826;47.514;19.056;2022-10-18T06:47:19;101481.59;;;29.96;44.09
50859;BME280;36826;47.514;19.056;2022-10-18T06:49:44;101474.66;;;30.06;43.88
50859;BME280;36826;47.514;19.056;2022-10-18T06:52:10;101482.97;;;30.18;43.63
50859;BME280;36826;47.514;19.056;2022-10-18T06:54:35;101484.56;;;30.25;43.25
50859;BME280;36826;47.514;19.056;2022-10-18T06:57:01;101495.00;;;30.35;43.23
50859;BME280;36826;47.514;19.056;2022-10-18T06:59:27;101489.38;;;30.42;43.34
50859;BME280;36826;47.514;19.056;2022-10-18T07:01:53;101499.03;;;30.51;43.08
50859;BME280;36826;47.514;19.056;2022-10-18T07:04:18;101493.78;;;30.61;42.85
50859;BME280;36826;47.514;19.056;2022-10-18T07:06:44;101496.19;;;30.70;42.50
50859;BME280;36826;47.514;19.056;2022-10-18T07:09:09;101493.09;;;30.78;42.62
50859;BME280;36826;47.514;19.056;2022-10-18T07:11:35;101487.19;;;30.86;42.23
50859;BME280;36826;47.514;19.056;2022-10-18T07:14:01;101488.13;;;30.92;42.22
50859;BME280;36826;47.514;19.056;2022-10-18T07:16:29;101485.38;;;31.04;42.20
50859;BME280;36826;47.514;19.056;2022-10-18T07:18:55;101486.56;;;31.08;41.88
50859;BME280;36826;47.514;19.056;2022-10-18T07:21:22;101481.78;;;31.15;42.11
50859;BME280;36826;47.514;19.056;2022-10-18T07:23:48;101480.91;;;31.27;41.74
50859;BME280;36826;47.514;19.056;2022-10-18T07:26:29;101481.13;;;31.37;41.79
50859;BME280;36826;47.514;19.056;2022-10-18T07:29:06;101476.28;;;31.44;41.30
50859;BME280;36826;47.514;19.056;2022-10-18T07:31:33;101467.75;;;31.46;41.24
50859;BME280;36826;47.514;19.056;2022-10-18T07:33:59;101464.94;;;31.58;41.48
50859;BME280;36826;47.514;19.056;2022-10-18T07:36:24;101463.69;;;31.77;41.10
50859;BME280;36826;47.514;19.056;2022-10-18T07:38:50;101462.53;;;31.90;40.49
50859;BME280;36826;47.514;19.056;2022-10-18T07:41:16;101469.88;;;31.96;40.27
50859;BME280;36826;47.514;19.056;2022-10-18T07:43:44;101457.13;;;32.12;40.25
50859;BME280;36826;47.514;19.056;2022-10-18T07:46:10;101456.31;;;32.12;39.95
50859;BME280;36826;47.514;19.056;2022-10-18T07:48:36;101461.88;;;32.29;39.24
50859;BME280;36826;47.514;19.056;2022-10-18T07:51:02;101455.44;;;32.11;39.65
50859;BME280;36826;47.514;19.056;2022-10-18T07:53:28;101462.91;;;31.94;38.87
50859;BME280;36826;47.514;19.056;2022-10-18T07:55:58;101454.97;;;31.86;38.27
50859;BME280;36826;47.514;19.056;2022-10-18T07:58:24;101454.19;;;31.73;37.62
50859;BME280;36826;47.514;19.056;2022-10-18T08:00:50;101449.25;;;31.63;34.86
50859;BME280;36826;47.514;19.056;2022-10-18T08:03:15;101451.16;;;31.46;33.32
50859;BME280;36826;47.514;19.056;2022-10-18T08:05:40;101447.91;;;31.37;33.50
50859;BME280;36826;47.514;19.056;2022-10-18T08:08:06;101448.66;;;31.20;31.55
50859;BME280;36826;47.514;19.056;2022-10-18T08:10:33;101447.00;;;31.07;30.16
50859;BME280;36826;47.514;19.056;2022-10-18T08:12:59;101447.59;;;31.21;34.04
50859;BME280;36826;47.514;19.056;2022-10-18T08:15:24;101443.94;;;31.33;34.06
50859;BME280;36826;47.514;19.056;2022-10-18T08:17:50;101439.00;;;31.47;33.58
50859;BME280;36826;47.514;19.056;2022-10-18T08:20:16;101428.44;;;31.61;33.27
50859;BME280;36826;47.514;19.056;2022-10-18T08:22:42;101427.69;;;31.77;33.15
50859;BME280;36826;47.514;19.056;2022-10-18T08:25:07;101423.53;;;31.92;33.14
50859;BME280;36826;47.514;19.056;2022-10-18T08:27:32;101419.16;;;31.96;33.09
50859;BME280;36826;47.514;19.056;2022-10-18T08:29:58;101422.19;;;31.94;33.49
50859;BME280;36826;47.514;19.056;2022-10-18T08:32:27;101416.47;;;32.01;33.40
50859;BME280;36826;47.514;19.056;2022-10-18T08:34:53;101411.03;;;32.06;33.65
50859;BME280;36826;47.514;19.056;2022-10-18T08:37:18;101402.50;;;32.25;33.46
50859;BME280;36826;47.514;19.056;2022-10-18T08:39:44;101404.06;;;32.21;33.90
50859;BME280;36826;47.514;19.056;2022-10-18T08:44:48;101402.63;;;32.18;34.07
50859;BME280;36826;47.514;19.056;2022-10-18T08:47:20;101398.72;;;32.31;33.85
50859;BME280;36826;47.514;19.056;2022-10-18T08:49:53;101395.34;;;32.29;34.12
50859;BME280;36826;47.514;19.056;2022-10-18T08:52:30;101397.53;;;32.27;34.14
50859;BME280;36826;47.514;19.056;2022-10-18T08:55:35;101392.47;;;32.24;34.42
50859;BME280;36826;47.514;19.056;2022-10-18T08:58:15;101383.50;;;32.17;34.68
50859;BME280;36826;47.514;19.056;2022-10-18T09:09:27;101376.09;;;32.05;35.48
50859;BME280;36826;47.514;19.056;2022-10-18T09:14:48;101366.50;;;31.79;35.72
50859;BME280;36826;47.514;19.056;2022-10-18T09:25:48;101364.69;;;31.56;36.60
50859;BME280;36826;47.514;19.056;2022-10-18T09:28:23;101358.72;;;31.47;36.67
50859;BME280;36826;47.514;19.056;2022-10-18T09:33:53;101360.44;;;31.36;37.12
50859;BME280;36826;47.514;19.056;2022-10-18T09:36:26;101350.09;;;31.31;36.79
50859;BME280;36826;47.514;19.056;2022-10-18T09:39:01;101347.59;;;31.30;37.15
50859;BME280;36826;47.514;19.056;2022-10-18T09:44:02;101345.31;;;31.27;37.27
50859;BME280;36826;47.514;19.056;2022-10-18T09:46:35;101341.69;;;31.55;36.75
50859;BME280;36826;47.514;19.056;2022-10-18T09:51:34;101331.38;;;30.69;35.25
50859;BME280;36826;47.514;19.056;2022-10-18T09:54:02;101328.50;;;30.40;30.64
50859;BME280;36826;47.514;19.056;2022-10-18T09:56:44;101327.78;;;30.09;29.97
50859;BME280;36826;47.514;19.056;2022-10-18T09:59:39;101325.31;;;29.89;30.20
50859;BME280;36826;47.514;19.056;2022-10-18T10:02:07;101325.88;;;29.79;29.10
50859;BME280;36826;47.514;19.056;2022-10-18T10:04:36;101325.16;;;29.72;29.67
50859;BME280;36826;47.514;19.056;2022-10-18T10:07:07;101317.69;;;29.60;31.58
50859;BME280;36826;47.514;19.056;2022-10-18T10:09:58;101310.97;;;29.56;31.85
50859;BME280;36826;47.514;19.056;2022-10-18T10:12:33;101311.78;;;29.45;31.78
50859;BME280;36826;47.514;19.056;2022-10-18T10:17:41;101302.72;;;29.37;32.35
50859;BME280;36826;47.514;19.056;2022-10-18T10:23:12;101297.38;;;29.24;30.10
50859;BME280;36826;47.514;19.056;2022-10-18T10:25:41;101288.03;;;29.25;29.32
50859;BME280;36826;47.514;19.056;2022-10-18T10:28:15;101277.66;;;29.08;29.62
50859;BME280;36826;47.514;19.056;2022-10-18T10:30:42;101283.19;;;29.08;30.83
50859;BME280;36826;47.514;19.056;2022-10-18T10:33:37;101272.00;;;29.03;30.68
50859;BME280;36826;47.514;19.056;2022-10-18T10:36:16;101272.34;;;28.95;30.51
50859;BME280;36826;47.514;19.056;2022-10-18T10:38:43;101266.66;;;28.90;31.00
50859;BME280;36826;47.514;19.056;2022-10-18T10:41:22;101271.47;;;28.94;31.26
50859;BME280;36826;47.514;19.056;2022-10-18T10:43:48;101262.81;;;28.91;31.07
50859;BME280;36826;47.514;19.056;2022-10-18T10:46:18;101259.00;;;28.92;31.38
50859;BME280;36826;47.514;19.056;2022-10-18T10:48:46;101253.34;;;28.87;31.44
50859;BME280;36826;47.514;19.056;2022-10-18T10:51:12;101243.56;;;28.72;29.31
50859;BME280;36826;47.514;19.056;2022-10-18T10:53:45;101243.09;;;28.75;30.26
50859;BME280;36826;47.514;19.056;2022-10-18T10:56:31;101249.22;;;28.77;30.86
50859;BME280;36826;47.514;19.056;2022-10-18T10:59:21;101250.75;;;28.73;30.86
50859;BME280;36826;47.514;19.056;2022-10-18T11:01:46;101246.09;;;28.74;30.43
50859;BME280;36826;47.514;19.056;2022-10-18T11:04:30;101233.97;;;28.56;28.95
50859;BME280;36826;47.514;19.056;2022-10-18T11:07:03;101241.03;;;28.52;30.31
50859;BME280;36826;47.514;19.056;2022-10-18T11:09:36;101224.09;;;28.48;27.94
50859;BME280;36826;47.514;19.056;2022-10-18T11:12:44;101226.56;;;28.38;28.18
50859;BME280;36826;47.514;19.056;2022-10-18T11:17:43;101221.75;;;28.33;28.87
50859;BME280;36826;47.514;19.056;2022-10-18T11:20:31;101219.06;;;28.27;29.52
50859;BME280;36826;47.514;19.056;2022-10-18T11:23:06;101211.25;;;28.24;28.78
50859;BME280;36826;47.514;19.056;2022-10-18T11:28:23;101204.53;;;28.20;28.73
50859;BME280;36826;47.514;19.056;2022-10-18T11:36:22;101198.47;;;28.11;29.64
50859;BME280;36826;47.514;19.056;2022-10-18T11:38:58;101187.66;;;28.09;29.10
50859;BME280;36826;47.514;19.056;2022-10-18T11:41:36;101180.06;;;28.05;29.33
50859;BME280;36826;47.514;19.056;2022-10-18T11:44:19;101176.94;;;28.01;29.72
50859;BME280;36826;47.514;19.056;2022-10-18T12:00:34;101152.31;;;27.87;28.47
50859;BME280;36826;47.514;19.056;2022-10-18T12:05:44;101150.63;;;27.86;28.80
50859;BME280;36826;47.514;19.056;2022-10-18T12:08:14;101142.22;;;27.81;29.40
50859;BME280;36826;47.514;19.056;2022-10-18T12:10:42;101139.28;;;27.76;29.08
50859;BME280;36826;47.514;19.056;2022-10-18T12:13:27;101127.34;;;27.82;29.13
50859;BME280;36826;47.514;19.056;2022-10-18T12:15:54;101133.34;;;27.79;29.69
50859;BME280;36826;47.514;19.056;2022-10-18T12:18:22;101121.41;;;27.85;29.64
50859;BME280;36826;47.514;19.056;2022-10-18T12:20:55;101124.47;;;27.77;29.68
50859;BME280;36826;47.514;19.056;2022-10-18T12:26:10;101123.16;;;27.80;29.85
50859;BME280;36826;47.514;19.056;2022-10-18T12:33:57;101107.16;;;27.70;30.14
50859;BME280;36826;47.514;19.056;2022-10-18T12:38:55;101092.75;;;27.75;29.80
50859;BME280;36826;47.514;19.056;2022-10-18T12:41:26;101087.44;;;27.73;30.19
50859;BME280;36826;47.514;19.056;2022-10-18T12:44:15;101085.94;;;27.77;29.61
50859;BME280;36826;47.514;19.056;2022-10-18T12:46:48;101080.88;;;27.74;29.88
50859;BME280;36826;47.514;19.056;2022-10-18T12:49:20;101081.94;;;27.73;29.41
50859;BME280;36826;47.514;19.056;2022-10-18T12:51:53;101070.81;;;27.68;29.38
50859;BME280;36826;47.514;19.056;2022-10-18T12:54:24;101069.13;;;27.67;29.44
50859;BME280;36826;47.514;19.056;2022-10-18T12:56:51;101064.44;;;27.67;29.57
50859;BME280;36826;47.514;19.056;2022-10-18T13:09:36;101043.13;;;27.63;29.40
50859;BME280;36826;47.514;19.056;2022-10-18T13:17:41;101040.88;;;27.53;29.16
50859;BME280;36826;47.514;19.056;2022-10-18T13:26:00;101037.53;;;27.51;29.42
50859;BME280;36826;47.514;19.056;2022-10-18T13:28:46;101032.63;;;27.53;29.33
50859;BME280;36826;47.514;19.056;2022-10-18T13:31:34;101034.13;;;27.55;29.73
50859;BME280;36826;47.514;19.056;2022-10-18T13:34:32;101036.69;;;27.50;29.17
50859;BME280;36826;47.514;19.056;2022-10-18T13:37:02;101036.69;;;27.50;29.16
50859;BME280;36826;47.514;19.056;2022-10-18T13:39:28;101037.94;;;27.54;29.06
50859;BME280;36826;47.514;19.056;2022-10-18T13:44:33;101039.75;;;27.61;29.14
50859;BME280;36826;47.514;19.056;2022-10-18T13:52:33;101038.69;;;27.62;29.51
50859;BME280;36826;47.514;19.056;2022-10-18T13:55:44;101025.72;;;27.44;29.83
50859;BME280;36826;47.514;19.056;2022-10-18T14:03:55;101019.63;;;27.41;30.00
50859;BME280;36826;47.514;19.056;2022-10-18T14:06:40;101020.75;;;27.34;29.50
50859;BME280;36826;47.514;19.056;2022-10-18T14:11:45;101010.66;;;27.28;29.70
50859;BME280;36826;47.514;19.056;2022-10-18T14:14:24;101004.25;;;27.34;29.77
50859;BME280;36826;47.514;19.056;2022-10-18T14:17:02;100998.91;;;27.39;29.44
50859;BME280;36826;47.514;19.056;2022-10-18T14:19:39;100997.22;;;27.38;29.69
50859;BME280;36826;47.514;19.056;2022-10-18T14:22:12;101000.97;;;27.44;29.32
50859;BME280;36826;47.514;19.056;2022-10-18T14:24:44;100994.47;;;27.38;29.56
50859;BME280;36826;47.514;19.056;2022-10-18T14:29:47;100989.31;;;27.48;29.33
50859;BME280;36826;47.514;19.056;2022-10-18T14:32:27;100986.72;;;27.53;29.79
50859;BME280;36826;47.514;19.056;2022-10-18T14:34:54;100982.91;;;27.54;29.71
50859;BME280;36826;47.514;19.056;2022-10-18T14:37:29;100979.47;;;27.59;29.64
50859;BME280;36826;47.514;19.056;2022-10-18T14:39:57;100979.00;;;27.62;29.84
50859;BME280;36826;47.514;19.056;2022-10-18T14:42:24;100977.69;;;27.65;30.04
50859;BME280;36826;47.514;19.056;2022-10-18T14:44:50;100978.31;;;27.67;30.16
50859;BME280;36826;47.514;19.056;2022-10-18T14:47:25;100966.81;;;27.70;30.69
50859;BME280;36826;47.514;19.056;2022-10-18T14:49:51;100967.44;;;27.72;30.68
50859;BME280;36826;47.514;19.056;2022-10-18T14:52:26;100961.09;;;27.71;30.85
50859;BME280;36826;47.514;19.056;2022-10-18T14:54:54;100952.59;;;27.73;31.09
50859;BME280;36826;47.514;19.056;2022-10-18T14:57:33;100950.47;;;27.75;31.32
50859;BME280;36826;47.514;19.056;2022-10-18T15:00:25;100950.47;;;27.75;31.65
50859;BME280;36826;47.514;19.056;2022-10-18T15:02:50;100952.16;;;27.76;32.20
50859;BME280;36826;47.514;19.056;2022-10-18T15:05:19;100946.63;;;27.76;32.58
50859;BME280;36826;47.514;19.056;2022-10-18T15:07:46;100948.94;;;27.79;33.29